Itaituba, Brazil
Current Conditions -  °F | °C
As of 10:00 PM on Thursday 27 Nov 2014 (Local Time) from SBIH Reporting Station
Thunderstorm Thunderstorm  
Wind Chill: 79°   Ceiling: 8000
Heat Index: 83°   Visibility: 6mi
Dew Point: 77°   Wind: 3mph
Humidity: 94%   Direction: 270°W
Pressure: NA   Gusts: NA
Location:  4.28°S, 55.98°W
Report Text: SBIH 280100Z 27003KT 9999 -TSRA FEW013 FEW023CB BKN080 26/25 Q1012
Loading
Personal Weather Stations






























Interactive Weather Map New forecast layout! Learn more

10-Day Weather Forecast

Advertisements
Track Severe Weather on mobile